sensor_id;sensor_type;location;lat;lon;timestamp;P1;durP1;ratioP1;P2;durP2;ratioP2
6941;SDS011;3510;43.200;27.920;2022-11-23T00:01:27;13.25;;;4.18;;
6941;SDS011;3510;43.200;27.920;2022-11-23T00:03:56;14.90;;;4.85;;
6941;SDS011;3510;43.200;27.920;2022-11-23T00:06:25;10.27;;;4.10;;
6941;SDS011;3510;43.200;27.920;2022-11-23T00:08:52;11.63;;;3.65;;
6941;SDS011;3510;43.200;27.920;2022-11-23T00:11:20;12.55;;;4.28;;
6941;SDS011;3510;43.200;27.920;2022-11-23T00:13:48;15.30;;;4.93;;
6941;SDS011;3510;43.200;27.920;2022-11-23T00:16:16;20.58;;;4.90;;
6941;SDS011;3510;43.200;27.920;2022-11-23T00:18:45;9.90;;;4.45;;
6941;SDS011;3510;43.200;27.920;2022-11-23T00:21:13;9.63;;;3.63;;
6941;SDS011;3510;43.200;27.920;2022-11-23T00:23:43;13.55;;;4.10;;
6941;SDS011;3510;43.200;27.920;2022-11-23T00:26:11;8.20;;;3.72;;
6941;SDS011;3510;43.200;27.920;2022-11-23T00:28:39;12.13;;;4.45;;
6941;SDS011;3510;43.200;27.920;2022-11-23T00:31:06;11.45;;;4.18;;
6941;SDS011;3510;43.200;27.920;2022-11-23T00:33:34;11.55;;;4.05;;
6941;SDS011;3510;43.200;27.920;2022-11-23T00:36:03;27.00;;;5.38;;
6941;SDS011;3510;43.200;27.920;2022-11-23T00:38:31;15.45;;;4.32;;
6941;SDS011;3510;43.200;27.920;2022-11-23T00:44:09;18.38;;;4.63;;
6941;SDS011;3510;43.200;27.920;2022-11-23T00:46:36;19.23;;;4.45;;
6941;SDS011;3510;43.200;27.920;2022-11-23T00:49:03;13.52;;;4.28;;
6941;SDS011;3510;43.200;27.920;2022-11-23T00:51:32;10.45;;;4.07;;
6941;SDS011;3510;43.200;27.920;2022-11-23T00:54:00;12.63;;;4.45;;
6941;SDS011;3510;43.200;27.920;2022-11-23T00:56:30;15.30;;;4.47;;
6941;SDS011;3510;43.200;27.920;2022-11-23T00:58:59;13.30;;;3.80;;
6941;SDS011;3510;43.200;27.920;2022-11-23T01:01:28;16.42;;;5.40;;
6941;SDS011;3510;43.200;27.920;2022-11-23T01:04:10;14.60;;;4.50;;
6941;SDS011;3510;43.200;27.920;2022-11-23T01:06:38;11.52;;;4.53;;
6941;SDS011;3510;43.200;27.920;2022-11-23T01:09:06;19.23;;;4.47;;
6941;SDS011;3510;43.200;27.920;2022-11-23T01:11:36;16.15;;;4.20;;
6941;SDS011;3510;43.200;27.920;2022-11-23T01:14:03;12.55;;;4.22;;
6941;SDS011;3510;43.200;27.920;2022-11-23T01:16:32;10.77;;;4.40;;
6941;SDS011;3510;43.200;27.920;2022-11-23T01:19:00;10.73;;;4.00;;
6941;SDS011;3510;43.200;27.920;2022-11-23T01:21:29;18.33;;;5.72;;
6941;SDS011;3510;43.200;27.920;2022-11-23T01:23:57;11.68;;;5.00;;
6941;SDS011;3510;43.200;27.920;2022-11-23T01:26:25;11.73;;;5.28;;
6941;SDS011;3510;43.200;27.920;2022-11-23T01:28:53;11.98;;;5.32;;
6941;SDS011;3510;43.200;27.920;2022-11-23T01:31:21;14.82;;;4.97;;
6941;SDS011;3510;43.200;27.920;2022-11-23T01:33:51;21.38;;;6.63;;
6941;SDS011;3510;43.200;27.920;2022-11-23T01:36:20;13.23;;;6.03;;
6941;SDS011;3510;43.200;27.920;2022-11-23T01:38:48;17.65;;;6.07;;
6941;SDS011;3510;43.200;27.920;2022-11-23T01:41:16;15.60;;;5.70;;
6941;SDS011;3510;43.200;27.920;2022-11-23T01:43:45;18.80;;;5.83;;
6941;SDS011;3510;43.200;27.920;2022-11-23T01:46:14;15.95;;;5.90;;
6941;SDS011;3510;43.200;27.920;2022-11-23T01:48:43;23.05;;;5.97;;
6941;SDS011;3510;43.200;27.920;2022-11-23T01:51:15;17.20;;;6.43;;
6941;SDS011;3510;43.200;27.920;2022-11-23T01:53:44;15.57;;;6.70;;
6941;SDS011;3510;43.200;27.920;2022-11-23T01:56:14;12.82;;;6.20;;
6941;SDS011;3510;43.200;27.920;2022-11-23T01:58:46;21.75;;;6.40;;
6941;SDS011;3510;43.200;27.920;2022-11-23T02:01:20;21.75;;;5.78;;
6941;SDS011;3510;43.200;27.920;2022-11-23T02:03:47;10.43;;;5.78;;
6941;SDS011;3510;43.200;27.920;2022-11-23T02:06:15;16.45;;;6.38;;
6941;SDS011;3510;43.200;27.920;2022-11-23T02:08:45;13.02;;;5.88;;
6941;SDS011;3510;43.200;27.920;2022-11-23T02:11:13;14.52;;;5.78;;
6941;SDS011;3510;43.200;27.920;2022-11-23T02:13:43;15.93;;;5.90;;
6941;SDS011;3510;43.200;27.920;2022-11-23T02:16:11;19.00;;;6.05;;
6941;SDS011;3510;43.200;27.920;2022-11-23T02:18:48;16.00;;;6.30;;
6941;SDS011;3510;43.200;27.920;2022-11-23T02:21:16;21.27;;;6.28;;
6941;SDS011;3510;43.200;27.920;2022-11-23T02:23:45;16.85;;;5.68;;
6941;SDS011;3510;43.200;27.920;2022-11-23T02:26:20;14.60;;;6.43;;
6941;SDS011;3510;43.200;27.920;2022-11-23T02:28:49;20.15;;;6.18;;
6941;SDS011;3510;43.200;27.920;2022-11-23T02:31:20;18.70;;;6.30;;
6941;SDS011;3510;43.200;27.920;2022-11-23T02:33:47;21.80;;;6.45;;
6941;SDS011;3510;43.200;27.920;2022-11-23T02:36:25;19.63;;;5.60;;
6941;SDS011;3510;43.200;27.920;2022-11-23T02:38:58;28.58;;;6.32;;
6941;SDS011;3510;43.200;27.920;2022-11-23T02:41:34;33.28;;;5.95;;
6941;SDS011;3510;43.200;27.920;2022-11-23T02:44:02;17.88;;;4.97;;
6941;SDS011;3510;43.200;27.920;2022-11-23T02:46:32;13.65;;;5.50;;
6941;SDS011;3510;43.200;27.920;2022-11-23T02:48:59;12.77;;;5.70;;
6941;SDS011;3510;43.200;27.920;2022-11-23T02:51:28;14.70;;;5.55;;
6941;SDS011;3510;43.200;27.920;2022-11-23T02:53:55;18.73;;;5.88;;
6941;SDS011;3510;43.200;27.920;2022-11-23T02:56:22;15.45;;;5.40;;
6941;SDS011;3510;43.200;27.920;2022-11-23T02:58:50;17.40;;;5.82;;
6941;SDS011;3510;43.200;27.920;2022-11-23T03:01:17;15.45;;;4.45;;
6941;SDS011;3510;43.200;27.920;2022-11-23T03:03:44;12.50;;;5.27;;
6941;SDS011;3510;43.200;27.920;2022-11-23T03:06:11;14.30;;;5.90;;
6941;SDS011;3510;43.200;27.920;2022-11-23T03:08:38;14.43;;;5.13;;
6941;SDS011;3510;43.200;27.920;2022-11-23T03:11:05;16.20;;;5.00;;
6941;SDS011;3510;43.200;27.920;2022-11-23T03:22:07;14.17;;;5.53;;
6941;SDS011;3510;43.200;27.920;2022-11-23T03:24:48;13.40;;;5.13;;
6941;SDS011;3510;43.200;27.920;2022-11-23T03:27:28;17.00;;;5.97;;
6941;SDS011;3510;43.200;27.920;2022-11-23T03:29:57;16.43;;;6.00;;
6941;SDS011;3510;43.200;27.920;2022-11-23T03:32:24;24.33;;;7.00;;
6941;SDS011;3510;43.200;27.920;2022-11-23T03:34:51;13.43;;;6.00;;
6941;SDS011;3510;43.200;27.920;2022-11-23T03:37:20;18.07;;;6.10;;
6941;SDS011;3510;43.200;27.920;2022-11-23T10:45:17;12.48;;;4.55;;
6941;SDS011;3510;43.200;27.920;2022-11-23T10:47:49;8.53;;;4.60;;
6941;SDS011;3510;43.200;27.920;2022-11-23T10:50:20;10.40;;;4.90;;
6941;SDS011;3510;43.200;27.920;2022-11-23T10:52:52;12.80;;;4.10;;
6941;SDS011;3510;43.200;27.920;2022-11-23T10:55:23;11.60;;;5.47;;
6941;SDS011;3510;43.200;27.920;2022-11-23T10:57:53;9.80;;;4.63;;
6941;SDS011;3510;43.200;27.920;2022-11-23T11:00:21;14.03;;;5.10;;
6941;SDS011;3510;43.200;27.920;2022-11-23T11:02:50;10.53;;;6.33;;
6941;SDS011;3510;43.200;27.920;2022-11-23T11:08:11;29.73;;;6.20;;
6941;SDS011;3510;43.200;27.920;2022-11-23T11:10:40;26.47;;;6.90;;
6941;SDS011;3510;43.200;27.920;2022-11-23T11:15:56;22.30;;;6.50;;
6941;SDS011;3510;43.200;27.920;2022-11-23T11:18:26;22.40;;;5.87;;
6941;SDS011;3510;43.200;27.920;2022-11-23T11:20:55;26.27;;;6.33;;
6941;SDS011;3510;43.200;27.920;2022-11-23T11:23:30;18.17;;;6.20;;
6941;SDS011;3510;43.200;27.920;2022-11-23T11:26:15;23.37;;;6.40;;
6941;SDS011;3510;43.200;27.920;2022-11-23T11:28:47;49.77;;;7.77;;
6941;SDS011;3510;43.200;27.920;2022-11-23T11:33:52;57.33;;;9.60;;
6941;SDS011;3510;43.200;27.920;2022-11-23T11:36:25;54.43;;;8.53;;
6941;SDS011;3510;43.200;27.920;2022-11-23T11:39:01;53.87;;;9.40;;
6941;SDS011;3510;43.200;27.920;2022-11-23T11:41:38;54.00;;;8.87;;
6941;SDS011;3510;43.200;27.920;2022-11-23T11:44:23;41.27;;;9.03;;
6941;SDS011;3510;43.200;27.920;2022-11-23T11:46:53;39.87;;;7.30;;
6941;SDS011;3510;43.200;27.920;2022-11-23T11:49:28;14.93;;;5.80;;
6941;SDS011;3510;43.200;27.920;2022-11-23T11:52:01;20.30;;;6.93;;
6941;SDS011;3510;43.200;27.920;2022-11-23T11:54:50;18.90;;;7.47;;
6941;SDS011;3510;43.200;27.920;2022-11-23T11:57:25;9.37;;;3.57;;
6941;SDS011;3510;43.200;27.920;2022-11-23T11:59:57;9.95;;;4.30;;
6941;SDS011;3510;43.200;27.920;2022-11-23T12:02:28;6.07;;;3.80;;
6941;SDS011;3510;43.200;27.920;2022-11-23T12:05:02;7.73;;;3.50;;
6941;SDS011;3510;43.200;27.920;2022-11-23T12:07:38;6.40;;;3.90;;
6941;SDS011;3510;43.200;27.920;2022-11-23T12:10:13;7.87;;;3.13;;
6941;SDS011;3510;43.200;27.920;2022-11-23T12:12:44;5.10;;;3.30;;
6941;SDS011;3510;43.200;27.920;2022-11-23T12:15:15;3.80;;;2.37;;
6941;SDS011;3510;43.200;27.920;2022-11-23T12:17:53;3.63;;;2.80;;
6941;SDS011;3510;43.200;27.920;2022-11-23T12:20:37;5.30;;;2.70;;
6941;SDS011;3510;43.200;27.920;2022-11-23T12:23:13;2.63;;;2.43;;
6941;SDS011;3510;43.200;27.920;2022-11-23T12:26:00;2.30;;;2.20;;
6941;SDS011;3510;43.200;27.920;2022-11-23T12:28:42;4.20;;;2.10;;
6941;SDS011;3510;43.200;27.920;2022-11-23T12:31:20;3.57;;;2.17;;
6941;SDS011;3510;43.200;27.920;2022-11-23T12:33:59;6.10;;;1.80;;
6941;SDS011;3510;43.200;27.920;2022-11-23T12:36:49;2.83;;;2.00;;
6941;SDS011;3510;43.200;27.920;2022-11-23T12:39:56;3.30;;;2.23;;
6941;SDS011;3510;43.200;27.920;2022-11-23T12:45:54;4.20;;;2.43;;
6941;SDS011;3510;43.200;27.920;2022-11-23T12:48:36;2.30;;;2.10;;
6941;SDS011;3510;43.200;27.920;2022-11-23T12:51:31;4.87;;;2.77;;
6941;SDS011;3510;43.200;27.920;2022-11-23T12:54:11;2.63;;;2.27;;
6941;SDS011;3510;43.200;27.920;2022-11-23T12:57:07;1.57;;;1.47;;
6941;SDS011;3510;43.200;27.920;2022-11-23T12:59:45;1.70;;;1.30;;
6941;SDS011;3510;43.200;27.920;2022-11-23T13:02:33;3.90;;;2.33;;
6941;SDS011;3510;43.200;27.920;2022-11-23T13:05:37;5.90;;;3.17;;
6941;SDS011;3510;43.200;27.920;2022-11-23T13:08:30;3.50;;;2.13;;
6941;SDS011;3510;43.200;27.920;2022-11-23T13:11:18;4.50;;;2.40;;
6941;SDS011;3510;43.200;27.920;2022-11-23T13:14:01;2.70;;;2.50;;
6941;SDS011;3510;43.200;27.920;2022-11-23T13:19:36;4.43;;;1.93;;
6941;SDS011;3510;43.200;27.920;2022-11-23T13:22:16;2.93;;;2.17;;
6941;SDS011;3510;43.200;27.920;2022-11-23T13:24:58;2.53;;;2.33;;
6941;SDS011;3510;43.200;27.920;2022-11-23T13:27:29;3.30;;;2.27;;
6941;SDS011;3510;43.200;27.920;2022-11-23T13:30:07;1.90;;;1.80;;
6941;SDS011;3510;43.200;27.920;2022-11-23T13:32:52;2.60;;;2.40;;
6941;SDS011;3510;43.200;27.920;2022-11-23T13:35:58;3.00;;;1.77;;
6941;SDS011;3510;43.200;27.920;2022-11-23T13:38:26;2.17;;;1.50;;
6941;SDS011;3510;43.200;27.920;2022-11-23T13:44:10;1.40;;;1.40;;
6941;SDS011;3510;43.200;27.920;2022-11-23T13:46:38;6.23;;;2.40;;
6941;SDS011;3510;43.200;27.920;2022-11-23T13:49:18;5.83;;;2.73;;
6941;SDS011;3510;43.200;27.920;2022-11-23T13:52:03;3.67;;;2.10;;
6941;SDS011;3510;43.200;27.920;2022-11-23T13:54:32;2.40;;;1.40;;
6941;SDS011;3510;43.200;27.920;2022-11-23T13:57:00;4.40;;;2.10;;
6941;SDS011;3510;43.200;27.920;2022-11-23T13:59:31;22.07;;;3.70;;
6941;SDS011;3510;43.200;27.920;2022-11-23T14:02:00;10.33;;;3.40;;
6941;SDS011;3510;43.200;27.920;2022-11-23T14:04:49;3.13;;;1.27;;
6941;SDS011;3510;43.200;27.920;2022-11-23T14:07:18;4.70;;;1.60;;
6941;SDS011;3510;43.200;27.920;2022-11-23T14:09:50;4.80;;;2.10;;
6941;SDS011;3510;43.200;27.920;2022-11-23T14:12:21;14.07;;;2.90;;
6941;SDS011;3510;43.200;27.920;2022-11-23T14:14:59;12.23;;;3.53;;
6941;SDS011;3510;43.200;27.920;2022-11-23T14:17:49;3.97;;;1.70;;
6941;SDS011;3510;43.200;27.920;2022-11-23T14:20:31;9.33;;;2.00;;
6941;SDS011;3510;43.200;27.920;2022-11-23T14:23:10;6.77;;;1.80;;
6941;SDS011;3510;43.200;27.920;2022-11-23T14:25:54;1.20;;;1.20;;
6941;SDS011;3510;43.200;27.920;2022-11-23T14:28:33;1.87;;;1.77;;
6941;SDS011;3510;43.200;27.920;2022-11-23T14:31:15;3.73;;;2.60;;
6941;SDS011;3510;43.200;27.920;2022-11-23T14:33:51;1.60;;;1.20;;
6941;SDS011;3510;43.200;27.920;2022-11-23T14:36:36;2.10;;;1.20;;
6941;SDS011;3510;43.200;27.920;2022-11-23T14:39:32;2.70;;;1.47;;
6941;SDS011;3510;43.200;27.920;2022-11-23T14:42:22;2.73;;;1.93;;
6941;SDS011;3510;43.200;27.920;2022-11-23T14:44:51;2.20;;;2.00;;
6941;SDS011;3510;43.200;27.920;2022-11-23T14:47:26;10.77;;;2.70;;
6941;SDS011;3510;43.200;27.920;2022-11-23T14:49:54;7.63;;;1.80;;
6941;SDS011;3510;43.200;27.920;2022-11-23T14:52:23;5.50;;;1.80;;
6941;SDS011;3510;43.200;27.920;2022-11-23T14:54:53;1.00;;;1.00;;
6941;SDS011;3510;43.200;27.920;2022-11-23T14:57:21;3.70;;;1.63;;
6941;SDS011;3510;43.200;27.920;2022-11-23T14:59:53;4.03;;;1.60;;
6941;SDS011;3510;43.200;27.920;2022-11-23T15:02:32;2.37;;;1.33;;
6941;SDS011;3510;43.200;27.920;2022-11-23T15:05:04;3.33;;;1.83;;
6941;SDS011;3510;43.200;27.920;2022-11-23T15:07:41;3.43;;;2.23;;
6941;SDS011;3510;43.200;27.920;2022-11-23T15:10:20;3.63;;;2.47;;
6941;SDS011;3510;43.200;27.920;2022-11-23T15:12:56;12.47;;;3.40;;
6941;SDS011;3510;43.200;27.920;2022-11-23T15:15:23;12.13;;;3.80;;
6941;SDS011;3510;43.200;27.920;2022-11-23T15:17:51;7.63;;;2.43;;
6941;SDS011;3510;43.200;27.920;2022-11-23T15:20:21;4.30;;;2.07;;
6941;SDS011;3510;43.200;27.920;2022-11-23T15:22:51;8.63;;;2.13;;
6941;SDS011;3510;43.200;27.920;2022-11-23T15:25:18;2.80;;;2.30;;
6941;SDS011;3510;43.200;27.920;2022-11-23T15:27:46;3.13;;;1.80;;
6941;SDS011;3510;43.200;27.920;2022-11-23T15:30:14;4.53;;;1.80;;
6941;SDS011;3510;43.200;27.920;2022-11-23T15:32:47;2.50;;;1.67;;
6941;SDS011;3510;43.200;27.920;2022-11-23T15:35:22;2.00;;;1.27;;
6941;SDS011;3510;43.200;27.920;2022-11-23T15:37:55;4.87;;;2.70;;
6941;SDS011;3510;43.200;27.920;2022-11-23T15:40:22;5.83;;;4.27;;
6941;SDS011;3510;43.200;27.920;2022-11-23T15:42:53;2.87;;;2.03;;
6941;SDS011;3510;43.200;27.920;2022-11-23T15:45:33;2.60;;;2.07;;
6941;SDS011;3510;43.200;27.920;2022-11-23T15:48:05;1.63;;;1.53;;
6941;SDS011;3510;43.200;27.920;2022-11-23T15:50:43;7.87;;;6.17;;
6941;SDS011;3510;43.200;27.920;2022-11-23T15:53:16;4.03;;;3.00;;
6941;SDS011;3510;43.200;27.920;2022-11-23T15:55:44;2.67;;;1.80;;
6941;SDS011;3510;43.200;27.920;2022-11-23T15:58:12;11.00;;;2.43;;
6941;SDS011;3510;43.200;27.920;2022-11-23T16:00:45;6.97;;;3.43;;
6941;SDS011;3510;43.200;27.920;2022-11-23T16:03:29;15.50;;;3.30;;
6941;SDS011;3510;43.200;27.920;2022-11-23T16:06:14;6.27;;;2.73;;
6941;SDS011;3510;43.200;27.920;2022-11-23T16:08:44;9.63;;;6.13;;
6941;SDS011;3510;43.200;27.920;2022-11-23T16:11:17;9.57;;;4.70;;
6941;SDS011;3510;43.200;27.920;2022-11-23T16:13:47;9.30;;;6.17;;
6941;SDS011;3510;43.200;27.920;2022-11-23T16:16:14;11.27;;;6.23;;
6941;SDS011;3510;43.200;27.920;2022-11-23T16:18:44;18.10;;;4.47;;
6941;SDS011;3510;43.200;27.920;2022-11-23T16:21:16;10.90;;;6.87;;
6941;SDS011;3510;43.200;27.920;2022-11-23T16:23:46;7.77;;;6.03;;
6941;SDS011;3510;43.200;27.920;2022-11-23T16:26:15;4.53;;;4.10;;
6941;SDS011;3510;43.200;27.920;2022-11-23T16:28:47;6.90;;;4.33;;
6941;SDS011;3510;43.200;27.920;2022-11-23T16:31:24;4.80;;;3.17;;
6941;SDS011;3510;43.200;27.920;2022-11-23T16:33:53;6.93;;;3.60;;
6941;SDS011;3510;43.200;27.920;2022-11-23T16:36:21;5.47;;;3.63;;
6941;SDS011;3510;43.200;27.920;2022-11-23T16:38:49;4.77;;;4.17;;
6941;SDS011;3510;43.200;27.920;2022-11-23T16:41:16;4.13;;;3.73;;
6941;SDS011;3510;43.200;27.920;2022-11-23T16:43:43;6.40;;;5.30;;
6941;SDS011;3510;43.200;27.920;2022-11-23T16:46:10;4.80;;;2.90;;
6941;SDS011;3510;43.200;27.920;2022-11-23T16:48:38;4.77;;;3.60;;
6941;SDS011;3510;43.200;27.920;2022-11-23T16:51:07;6.10;;;3.40;;
6941;SDS011;3510;43.200;27.920;2022-11-23T16:53:40;4.73;;;4.33;;
6941;SDS011;3510;43.200;27.920;2022-11-23T16:56:10;5.57;;;4.90;;
6941;SDS011;3510;43.200;27.920;2022-11-23T16:58:42;8.17;;;7.07;;
6941;SDS011;3510;43.200;27.920;2022-11-23T17:01:16;5.43;;;3.50;;
6941;SDS011;3510;43.200;27.920;2022-11-23T17:03:46;8.50;;;5.70;;
6941;SDS011;3510;43.200;27.920;2022-11-23T17:06:27;7.30;;;3.70;;
6941;SDS011;3510;43.200;27.920;2022-11-23T17:09:08;8.53;;;4.20;;
6941;SDS011;3510;43.200;27.920;2022-11-23T17:11:37;19.50;;;10.73;;
6941;SDS011;3510;43.200;27.920;2022-11-23T17:14:09;15.57;;;7.30;;
6941;SDS011;3510;43.200;27.920;2022-11-23T17:16:39;14.57;;;8.40;;
6941;SDS011;3510;43.200;27.920;2022-11-23T17:19:20;9.40;;;5.83;;
6941;SDS011;3510;43.200;27.920;2022-11-23T17:21:47;9.17;;;2.43;;
6941;SDS011;3510;43.200;27.920;2022-11-23T17:24:14;2.97;;;2.70;;
6941;SDS011;3510;43.200;27.920;2022-11-23T17:26:43;3.60;;;3.17;;
6941;SDS011;3510;43.200;27.920;2022-11-23T17:29:16;3.10;;;2.43;;
6941;SDS011;3510;43.200;27.920;2022-11-23T17:31:44;3.23;;;2.43;;
6941;SDS011;3510;43.200;27.920;2022-11-23T17:34:12;6.53;;;2.20;;
6941;SDS011;3510;43.200;27.920;2022-11-23T17:36:39;7.93;;;1.70;;
6941;SDS011;3510;43.200;27.920;2022-11-23T17:39:06;10.63;;;2.13;;
6941;SDS011;3510;43.200;27.920;2022-11-23T17:41:37;14.47;;;2.30;;
6941;SDS011;3510;43.200;27.920;2022-11-23T17:44:06;9.57;;;3.13;;
6941;SDS011;3510;43.200;27.920;2022-11-23T17:46:34;5.60;;;2.63;;
6941;SDS011;3510;43.200;27.920;2022-11-23T17:49:01;4.60;;;2.43;;
6941;SDS011;3510;43.200;27.920;2022-11-23T17:51:28;3.23;;;2.90;;
6941;SDS011;3510;43.200;27.920;2022-11-23T17:53:55;3.33;;;2.30;;
6941;SDS011;3510;43.200;27.920;2022-11-23T17:56:23;4.50;;;2.37;;
6941;SDS011;3510;43.200;27.920;2022-11-23T17:58:51;3.40;;;2.17;;
6941;SDS011;3510;43.200;27.920;2022-11-23T18:01:21;4.67;;;3.57;;
6941;SDS011;3510;43.200;27.920;2022-11-23T18:03:48;3.80;;;2.10;;
6941;SDS011;3510;43.200;27.920;2022-11-23T18:06:16;3.83;;;2.30;;
6941;SDS011;3510;43.200;27.920;2022-11-23T18:08:45;4.67;;;2.30;;
6941;SDS011;3510;43.200;27.920;2022-11-23T18:11:13;1.93;;;1.77;;
6941;SDS011;3510;43.200;27.920;2022-11-23T18:13:40;3.10;;;1.80;;
6941;SDS011;3510;43.200;27.920;2022-11-23T18:16:07;2.93;;;1.73;;
6941;SDS011;3510;43.200;27.920;2022-11-23T18:18:37;2.00;;;1.90;;
6941;SDS011;3510;43.200;27.920;2022-11-23T18:21:04;4.47;;;1.73;;
6941;SDS011;3510;43.200;27.920;2022-11-23T18:23:31;1.70;;;1.60;;
6941;SDS011;3510;43.200;27.920;2022-11-23T18:25:59;5.33;;;1.77;;
6941;SDS011;3510;43.200;27.920;2022-11-23T18:28:27;2.87;;;2.50;;
6941;SDS011;3510;43.200;27.920;2022-11-23T18:30:55;2.13;;;1.80;;
6941;SDS011;3510;43.200;27.920;2022-11-23T18:33:25;2.93;;;1.83;;
6941;SDS011;3510;43.200;27.920;2022-11-23T18:36:01;7.23;;;1.93;;
6941;SDS011;3510;43.200;27.920;2022-11-23T18:38:29;2.40;;;2.20;;
6941;SDS011;3510;43.200;27.920;2022-11-23T18:41:13;3.00;;;2.70;;
6941;SDS011;3510;43.200;27.920;2022-11-23T18:43:46;2.83;;;2.13;;
6941;SDS011;3510;43.200;27.920;2022-11-23T18:46:14;2.50;;;1.80;;
6941;SDS011;3510;43.200;27.920;2022-11-23T18:48:43;5.47;;;2.60;;
6941;SDS011;3510;43.200;27.920;2022-11-23T18:51:12;3.93;;;2.83;;
6941;SDS011;3510;43.200;27.920;2022-11-23T18:53:40;29.93;;;17.73;;
6941;SDS011;3510;43.200;27.920;2022-11-23T18:56:09;38.30;;;21.37;;
6941;SDS011;3510;43.200;27.920;2022-11-23T18:58:38;17.40;;;11.00;;
6941;SDS011;3510;43.200;27.920;2022-11-23T19:01:08;11.30;;;9.10;;
6941;SDS011;3510;43.200;27.920;2022-11-23T19:03:42;12.57;;;10.07;;
6941;SDS011;3510;43.200;27.920;2022-11-23T19:06:12;8.90;;;7.53;;
6941;SDS011;3510;43.200;27.920;2022-11-23T19:08:42;7.33;;;6.63;;
6941;SDS011;3510;43.200;27.920;2022-11-23T19:11:13;11.07;;;7.87;;
6941;SDS011;3510;43.200;27.920;2022-11-23T19:13:42;6.93;;;6.17;;
6941;SDS011;3510;43.200;27.920;2022-11-23T19:16:12;7.30;;;5.20;;
6941;SDS011;3510;43.200;27.920;2022-11-23T19:18:47;5.77;;;4.97;;
6941;SDS011;3510;43.200;27.920;2022-11-23T19:21:20;5.23;;;4.73;;
6941;SDS011;3510;43.200;27.920;2022-11-23T19:23:49;6.70;;;5.50;;
6941;SDS011;3510;43.200;27.920;2022-11-23T19:26:18;8.03;;;5.10;;
6941;SDS011;3510;43.200;27.920;2022-11-23T19:28:57;8.37;;;6.33;;
6941;SDS011;3510;43.200;27.920;2022-11-23T19:31:29;10.43;;;9.23;;
6941;SDS011;3510;43.200;27.920;2022-11-23T19:33:58;8.97;;;8.10;;
6941;SDS011;3510;43.200;27.920;2022-11-23T19:39:26;13.77;;;7.37;;
6941;SDS011;3510;43.200;27.920;2022-11-23T19:41:53;8.40;;;7.60;;
6941;SDS011;3510;43.200;27.920;2022-11-23T19:44:21;7.30;;;6.33;;
6941;SDS011;3510;43.200;27.920;2022-11-23T19:47:04;8.07;;;7.33;;
6941;SDS011;3510;43.200;27.920;2022-11-23T19:49:31;11.43;;;8.10;;
6941;SDS011;3510;43.200;27.920;2022-11-23T19:51:59;13.97;;;9.30;;
6941;SDS011;3510;43.200;27.920;2022-11-23T19:54:27;72.03;;;39.63;;
6941;SDS011;3510;43.200;27.920;2022-11-23T19:56:54;20.83;;;11.57;;
6941;SDS011;3510;43.200;27.920;2022-11-23T19:59:22;23.50;;;8.30;;
6941;SDS011;3510;43.200;27.920;2022-11-23T20:02:03;29.50;;;10.37;;
6941;SDS011;3510;43.200;27.920;2022-11-23T20:04:31;29.67;;;8.97;;
6941;SDS011;3510;43.200;27.920;2022-11-23T20:07:04;27.30;;;7.80;;
6941;SDS011;3510;43.200;27.920;2022-11-23T20:09:31;27.13;;;6.90;;
6941;SDS011;3510;43.200;27.920;2022-11-23T20:11:58;21.40;;;6.30;;
6941;SDS011;3510;43.200;27.920;2022-11-23T20:14:25;39.17;;;6.13;;
6941;SDS011;3510;43.200;27.920;2022-11-23T20:16:52;26.77;;;7.30;;
6941;SDS011;3510;43.200;27.920;2022-11-23T20:19:20;26.27;;;5.87;;
6941;SDS011;3510;43.200;27.920;2022-11-23T20:21:47;29.83;;;10.43;;
6941;SDS011;3510;43.200;27.920;2022-11-23T20:24:35;31.50;;;9.37;;
6941;SDS011;3510;43.200;27.920;2022-11-23T20:27:02;20.87;;;6.33;;
6941;SDS011;3510;43.200;27.920;2022-11-23T20:29:29;32.43;;;7.03;;
6941;SDS011;3510;43.200;27.920;2022-11-23T20:31:56;25.50;;;9.07;;
6941;SDS011;3510;43.200;27.920;2022-11-23T20:34:24;23.70;;;6.30;;
6941;SDS011;3510;43.200;27.920;2022-11-23T20:36:51;20.60;;;8.77;;
6941;SDS011;3510;43.200;27.920;2022-11-23T20:39:18;8.03;;;3.97;;
6941;SDS011;3510;43.200;27.920;2022-11-23T20:41:47;11.90;;;6.97;;
6941;SDS011;3510;43.200;27.920;2022-11-23T20:44:14;7.77;;;3.27;;
6941;SDS011;3510;43.200;27.920;2022-11-23T20:46:41;15.73;;;5.63;;
6941;SDS011;3510;43.200;27.920;2022-11-23T20:49:08;6.63;;;4.00;;
6941;SDS011;3510;43.200;27.920;2022-11-23T20:51:36;4.97;;;4.03;;
6941;SDS011;3510;43.200;27.920;2022-11-23T20:54:03;7.07;;;3.30;;
6941;SDS011;3510;43.200;27.920;2022-11-23T20:56:30;18.60;;;8.30;;
6941;SDS011;3510;43.200;27.920;2022-11-23T20:58:58;8.93;;;6.77;;
6941;SDS011;3510;43.200;27.920;2022-11-23T21:01:26;10.43;;;5.90;;
6941;SDS011;3510;43.200;27.920;2022-11-23T21:03:54;9.83;;;5.27;;
6941;SDS011;3510;43.200;27.920;2022-11-23T21:06:22;9.60;;;5.23;;
6941;SDS011;3510;43.200;27.920;2022-11-23T21:08:50;9.00;;;4.30;;
6941;SDS011;3510;43.200;27.920;2022-11-23T21:11:18;4.20;;;3.80;;
6941;SDS011;3510;43.200;27.920;2022-11-23T21:14:06;4.90;;;3.50;;
6941;SDS011;3510;43.200;27.920;2022-11-23T21:16:37;7.63;;;3.97;;
6941;SDS011;3510;43.200;27.920;2022-11-23T21:19:06;8.27;;;3.40;;
6941;SDS011;3510;43.200;27.920;2022-11-23T21:21:34;3.30;;;3.00;;
6941;SDS011;3510;43.200;27.920;2022-11-23T21:24:02;13.77;;;3.40;;
6941;SDS011;3510;43.200;27.920;2022-11-23T21:26:29;7.27;;;3.73;;
6941;SDS011;3510;43.200;27.920;2022-11-23T21:28:57;4.27;;;3.13;;
6941;SDS011;3510;43.200;27.920;2022-11-23T21:31:26;9.13;;;3.10;;
6941;SDS011;3510;43.200;27.920;2022-11-23T21:33:54;8.87;;;3.90;;
6941;SDS011;3510;43.200;27.920;2022-11-23T21:36:29;6.33;;;3.67;;
6941;SDS011;3510;43.200;27.920;2022-11-23T21:38:57;8.17;;;3.90;;
